createdAt,value
2023-06-11T00:02:34.249Z,67.02
2023-06-11T00:05:05.384Z,67.64
2023-06-11T00:07:34.253Z,66.94
2023-06-11T00:10:04.594Z,67.67
2023-06-11T00:12:35.224Z,68.07
2023-06-11T00:15:04.137Z,68.99
2023-06-11T00:17:34.906Z,69.16
2023-06-11T00:20:05.139Z,68.69
2023-06-11T00:22:34.228Z,68.76
2023-06-11T00:25:02.995Z,68.77
2023-06-11T00:27:31.741Z,68.08
2023-06-11T00:30:02.613Z,68.08
2023-06-11T00:32:31.976Z,68.53
2023-06-11T00:35:02.507Z,69.16
2023-06-11T00:37:33.580Z,68.71
2023-06-11T00:40:02.675Z,67.31
2023-06-11T00:42:31.588Z,66.87
2023-06-11T00:45:02.648Z,67.83
2023-06-11T00:47:32.002Z,68.97
2023-06-11T00:50:03.573Z,68.28
2023-06-11T00:52:32.472Z,67.71
2023-06-11T00:55:01.949Z,67.58
2023-06-11T00:57:30.864Z,66.86
2023-06-11T01:00:02.041Z,66.31
2023-06-11T01:02:40.183Z,67.97
2023-06-11T01:05:14.085Z,68.08
2023-06-11T01:07:51.606Z,67.13
2023-06-11T01:10:28.025Z,68.05
2023-06-11T01:12:58.945Z,68.09
2023-06-11T01:15:28.758Z,67.80
2023-06-11T01:18:06.837Z,67.10
2023-06-11T01:20:46.441Z,67.14
2023-06-11T01:23:32.522Z,67.15
2023-06-11T01:26:43.570Z,67.37
2023-06-11T01:29:17.928Z,66.80
2023-06-11T01:31:47.638Z,66.91
2023-06-11T01:34:18.358Z,68.27
2023-06-11T01:36:49.645Z,68.13
2023-06-11T01:39:20.345Z,67.23
2023-06-11T01:42:01.260Z,67.59
2023-06-11T01:44:33.642Z,66.51
2023-06-11T01:47:02.607Z,66.85
2023-06-11T01:49:32.093Z,67.79
2023-06-11T01:52:00.944Z,67.89
2023-06-11T01:54:29.913Z,67.48
2023-06-11T01:56:58.750Z,68.03
2023-06-11T01:59:28.025Z,68.72
2023-06-11T02:01:58.364Z,68.88
2023-06-11T02:04:27.324Z,68.01
2023-06-11T02:06:56.729Z,67.66
2023-06-11T02:09:25.619Z,67.67
2023-06-11T02:11:54.706Z,67.51
2023-06-11T02:14:23.593Z,68.03
2023-06-11T02:16:52.889Z,67.18
2023-06-11T02:19:23.668Z,66.57
2023-06-11T02:21:52.636Z,67.45
2023-06-11T02:24:21.716Z,68.27
2023-06-11T02:26:50.695Z,67.57
2023-06-11T02:29:19.602Z,67.09
2023-06-11T02:31:48.749Z,67.96
2023-06-11T02:34:19.332Z,68.34
2023-06-11T02:36:50.269Z,68.05
2023-06-11T02:39:19.407Z,67.55
2023-06-11T02:41:48.265Z,68.69
2023-06-11T02:44:17.057Z,68.31
2023-06-11T02:46:45.874Z,67.25
2023-06-11T02:49:14.900Z,67.56
2023-06-11T02:51:43.737Z,68.32
2023-06-11T02:54:13.927Z,68.39
2023-06-11T02:56:43.004Z,69.09
2023-06-11T02:59:11.887Z,69.07
2023-06-11T03:01:41.768Z,67.43
2023-06-11T03:04:11.945Z,67.74
2023-06-11T03:06:41.737Z,68.88
2023-06-11T03:09:10.980Z,68.92
2023-06-11T03:11:41.272Z,68.02
2023-06-11T03:14:10.197Z,66.79
2023-06-11T03:16:39.193Z,67.06
2023-06-11T03:19:08.121Z,68.30
2023-06-11T03:21:37.594Z,68.99
2023-06-11T03:24:07.849Z,68.88
2023-06-11T03:26:36.864Z,68.05
2023-06-11T03:29:07.078Z,67.97
2023-06-11T03:31:45.136Z,68.55
2023-06-11T03:34:14.225Z,68.15
2023-06-11T03:36:43.031Z,67.74
2023-06-11T03:39:18.112Z,67.74
2023-06-11T03:41:49.622Z,67.70
2023-06-11T03:44:21.176Z,67.96
2023-06-11T03:46:50.308Z,68.69
2023-06-11T03:49:19.251Z,69.45
2023-06-11T03:51:48.229Z,69.20
2023-06-11T03:54:17.185Z,69.54
2023-06-11T03:56:46.603Z,68.52
2023-06-11T03:59:16.091Z,68.12
2023-06-11T04:01:47.273Z,67.93
2023-06-11T04:04:17.392Z,68.97
2023-06-11T04:06:48.289Z,70.00
2023-06-11T04:09:24.446Z,69.99
2023-06-11T04:11:53.546Z,69.81
2023-06-11T04:14:23.537Z,69.73
2023-06-11T04:16:54.437Z,69.61
2023-06-11T04:19:23.466Z,69.48
2023-06-11T04:21:54.452Z,69.42
2023-06-11T04:24:25.731Z,69.38
2023-06-11T04:26:54.888Z,68.76
2023-06-11T04:29:24.252Z,68.57
2023-06-11T04:32:22.572Z,69.89
2023-06-11T04:34:51.670Z,70.46
2023-06-11T04:37:21.486Z,70.09
2023-06-11T04:39:52.211Z,70.77
2023-06-11T04:42:21.613Z,71.65
2023-06-11T04:44:51.405Z,70.96
2023-06-11T04:47:23.940Z,71.26
2023-06-11T04:49:55.687Z,71.40
2023-06-11T04:52:27.937Z,71.29
2023-06-11T04:54:57.464Z,72.15
2023-06-11T04:57:26.859Z,72.93
2023-06-11T04:59:57.504Z,73.19
2023-06-11T05:02:29.772Z,73.84
2023-06-11T05:04:58.885Z,73.62
2023-06-11T05:07:28.867Z,74.18
2023-06-11T05:09:58.187Z,73.25
2023-06-11T05:12:27.497Z,73.96
2023-06-11T05:14:57.864Z,74.11
2023-06-11T05:17:30.462Z,74.22
2023-06-11T05:20:00.489Z,73.90
2023-06-11T05:22:31.363Z,73.99
2023-06-11T05:25:01.943Z,73.82
2023-06-11T05:27:35.318Z,73.52
2023-06-11T05:30:10.406Z,73.54
2023-06-11T05:32:45.678Z,74.07
2023-06-11T05:35:19.917Z,73.47
2023-06-11T05:37:50.687Z,74.10
2023-06-11T05:40:21.103Z,73.73
2023-06-11T05:42:50.273Z,74.00
2023-06-11T05:45:20.822Z,74.37
2023-06-11T05:47:51.525Z,74.01
2023-06-11T05:50:21.717Z,73.81
2023-06-11T05:52:51.721Z,73.83
2023-06-11T05:55:21.757Z,73.92
2023-06-11T05:57:50.869Z,73.61
2023-06-11T06:00:21.136Z,72.67
2023-06-11T06:02:56.787Z,71.00
2023-06-11T06:05:31.114Z,68.97
2023-06-11T06:08:00.059Z,68.49
2023-06-11T06:10:28.937Z,67.65
2023-06-11T06:12:58.073Z,66.61
2023-06-11T06:15:27.409Z,65.68
2023-06-11T06:17:58.121Z,65.33
2023-06-11T06:20:39.520Z,64.64
2023-06-11T06:23:08.307Z,64.97
2023-06-11T06:25:39.590Z,65.00
2023-06-11T06:28:11.803Z,64.94
2023-06-11T06:30:41.213Z,65.70
2023-06-11T06:33:13.330Z,64.46
2023-06-11T06:35:42.236Z,62.67
2023-06-11T06:38:11.166Z,62.55
2023-06-11T06:40:40.422Z,61.81
2023-06-11T06:43:09.665Z,60.31
2023-06-11T06:45:56.425Z,61.08
2023-06-11T06:48:39.355Z,59.40
2023-06-11T06:51:26.781Z,60.83
2023-06-11T06:53:55.643Z,58.18
2023-06-11T06:57:06.811Z,58.01
2023-06-11T06:59:35.809Z,56.42
2023-06-11T07:02:07.336Z,55.65
2023-06-11T07:04:41.424Z,55.37
2023-06-11T07:07:10.580Z,55.21
2023-06-11T07:09:41.113Z,53.07
2023-06-11T07:12:12.052Z,54.08
2023-06-11T07:14:41.105Z,54.72
2023-06-11T07:17:10.083Z,54.35
2023-06-11T07:23:13.885Z,51.30
2023-06-11T07:25:45.837Z,52.28
2023-06-11T07:28:15.587Z,53.01
2023-06-11T07:30:44.464Z,53.64
2023-06-11T07:33:13.683Z,52.55
2023-06-11T07:35:48.177Z,54.23
2023-06-11T07:38:21.978Z,52.21
2023-06-11T07:40:50.900Z,50.69
2023-06-11T07:43:19.877Z,51.90
2023-06-11T07:45:49.990Z,51.40
2023-06-11T07:48:21.387Z,51.21
2023-06-11T07:50:54.913Z,51.18
2023-06-11T07:53:26.778Z,50.33
2023-06-11T07:55:58.379Z,50.76
2023-06-11T07:58:27.528Z,51.09
2023-06-11T08:00:56.404Z,52.57
2023-06-11T08:03:25.270Z,51.70
2023-06-11T08:05:55.556Z,51.46
2023-06-11T08:08:24.319Z,50.55
2023-06-11T08:10:53.180Z,51.54
2023-06-11T08:13:23.132Z,49.76
2023-06-11T08:15:51.964Z,49.86
2023-06-11T08:18:20.949Z,51.40
2023-06-11T08:20:52.281Z,50.69
2023-06-11T08:23:28.373Z,48.74
2023-06-11T08:26:00.226Z,49.50
2023-06-11T08:28:29.490Z,48.61
2023-06-11T08:30:59.442Z,48.34
2023-06-11T08:33:28.398Z,48.41
2023-06-11T08:35:57.150Z,50.21
2023-06-11T08:38:29.452Z,49.31
2023-06-11T08:40:58.463Z,48.23
2023-06-11T08:43:27.343Z,48.81
2023-06-11T08:45:56.220Z,51.70
2023-06-11T08:48:30.350Z,49.93
2023-06-11T08:51:02.982Z,50.13
2023-06-11T08:53:33.335Z,48.34
2023-06-11T08:56:02.325Z,47.62
2023-06-11T08:58:35.957Z,48.51
2023-06-11T09:01:11.478Z,47.10
2023-06-11T09:03:45.073Z,47.15
2023-06-11T09:06:14.146Z,47.87
2023-06-11T09:08:44.307Z,46.45
2023-06-11T09:11:17.468Z,46.31
2023-06-11T09:13:46.952Z,46.56
2023-06-11T09:16:15.706Z,48.59
2023-06-11T09:18:45.995Z,46.89
2023-06-11T09:21:16.308Z,47.18
2023-06-11T09:23:48.042Z,46.83
2023-06-11T09:26:19.935Z,44.78
2023-06-11T09:28:51.713Z,43.75
2023-06-11T09:31:23.478Z,45.47
2023-06-11T09:33:55.525Z,43.91
2023-06-11T09:36:27.397Z,44.96
2023-06-11T09:38:57.889Z,44.17
2023-06-11T09:41:28.408Z,42.80
2023-06-11T09:44:12.972Z,44.63
2023-06-11T09:46:43.071Z,41.55
2023-06-11T09:49:14.468Z,41.80
2023-06-11T09:51:44.858Z,40.97
2023-06-11T09:54:15.990Z,39.76
2023-06-11T09:56:50.793Z,39.25
2023-06-11T09:59:21.983Z,39.67
2023-06-11T10:01:53.361Z,38.07
2023-06-11T10:04:22.619Z,38.18
2023-06-11T10:06:53.328Z,37.98
2023-06-11T10:09:24.340Z,38.24
2023-06-11T10:11:56.383Z,36.06
2023-06-11T10:14:26.576Z,38.07
2023-06-11T10:16:57.613Z,37.69
2023-06-11T10:19:36.248Z,37.80
2023-06-11T10:22:05.870Z,36.43
2023-06-11T10:24:36.296Z,40.18
2023-06-11T10:27:13.838Z,35.16
2023-06-11T10:29:44.626Z,35.17
2023-06-11T10:32:18.310Z,34.24
2023-06-11T10:34:49.973Z,33.56
2023-06-11T10:37:32.577Z,33.19
2023-06-11T10:40:02.799Z,33.30
2023-06-11T10:42:39.549Z,35.31
2023-06-11T10:45:10.512Z,35.28
2023-06-11T10:47:45.511Z,34.93
2023-06-11T10:50:16.940Z,35.87
2023-06-11T10:52:52.559Z,33.08
2023-06-11T10:55:26.250Z,35.27
2023-06-11T10:57:56.008Z,33.94
2023-06-11T11:00:34.656Z,34.82
2023-06-11T11:03:06.989Z,34.45
2023-06-11T11:05:36.171Z,35.72
2023-06-11T11:08:05.013Z,36.29
2023-06-11T11:10:35.602Z,34.30
2023-06-11T11:13:05.551Z,35.32
2023-06-11T11:15:34.275Z,35.93
2023-06-11T11:18:05.183Z,34.86
2023-06-11T11:20:34.682Z,33.84
2023-06-11T11:23:03.674Z,32.32
2023-06-11T11:25:33.589Z,33.26
2023-06-11T11:28:03.760Z,34.43
2023-06-11T11:30:32.512Z,31.26
2023-06-11T11:33:01.770Z,33.86
2023-06-11T11:35:31.041Z,33.48
2023-06-11T11:37:59.899Z,34.03
2023-06-11T11:40:30.454Z,32.18
2023-06-11T11:43:00.037Z,33.36
2023-06-11T11:45:35.919Z,32.26
2023-06-11T11:48:05.818Z,31.03
2023-06-11T11:50:35.753Z,32.06
2023-06-11T11:53:07.220Z,32.32
2023-06-11T11:55:51.660Z,29.51
2023-06-11T11:58:25.347Z,30.41
2023-06-11T12:00:58.010Z,30.52
2023-06-11T12:03:27.019Z,29.13
2023-06-11T12:06:01.364Z,30.60
2023-06-11T12:08:31.752Z,30.29
2023-06-11T12:11:02.292Z,29.91
2023-06-11T12:13:31.167Z,29.85
2023-06-11T12:16:04.561Z,27.84
2023-06-11T12:18:34.408Z,29.50
2023-06-11T12:21:03.345Z,29.59
2023-06-11T12:23:32.109Z,29.24
2023-06-11T12:26:02.611Z,27.72
2023-06-11T12:31:31.697Z,28.86
2023-06-11T12:34:00.442Z,29.49
2023-06-11T12:36:29.196Z,28.33
2023-06-11T12:38:57.864Z,29.05
2023-06-11T12:41:27.053Z,28.33
2023-06-11T12:43:55.824Z,29.87
2023-06-11T12:46:24.513Z,28.46
2023-06-11T12:48:54.713Z,26.18
2023-06-11T12:51:23.926Z,26.87
2023-06-11T12:53:53.991Z,26.40
2023-06-11T12:56:24.297Z,25.33
2023-06-11T12:58:53.198Z,26.38
2023-06-11T13:01:22.231Z,24.58
2023-06-11T13:03:51.074Z,24.52
2023-06-11T13:06:21.625Z,25.31
2023-06-11T13:08:51.712Z,23.91
2023-06-11T13:11:20.486Z,25.10
2023-06-11T13:13:49.190Z,25.47
2023-06-11T13:16:18.021Z,23.94
2023-06-11T13:18:47.273Z,23.01
2023-06-11T13:21:17.551Z,21.93
2023-06-11T13:23:47.740Z,22.41
2023-06-11T13:26:16.430Z,21.94
2023-06-11T13:28:45.266Z,22.52
2023-06-11T13:31:14.540Z,24.01
2023-06-11T13:33:43.885Z,22.72
2023-06-11T13:36:12.886Z,22.38
2023-06-11T13:38:42.652Z,22.98
2023-06-11T13:41:12.845Z,21.74
2023-06-11T13:43:41.548Z,21.63
2023-06-11T13:46:10.955Z,22.70
2023-06-11T13:48:39.693Z,21.22
2023-06-11T13:51:08.793Z,20.27
2023-06-11T13:53:37.514Z,20.85
2023-06-11T13:56:06.692Z,20.30
2023-06-11T13:58:36.926Z,20.70
2023-06-11T14:01:05.773Z,19.96
2023-06-11T14:03:34.570Z,20.07
2023-06-11T14:06:05.395Z,20.39
2023-06-11T14:08:34.097Z,18.36
2023-06-11T14:11:02.909Z,20.13
2023-06-11T14:13:31.597Z,19.17
2023-06-11T14:16:01.888Z,17.83
2023-06-11T14:18:30.725Z,17.50
2023-06-11T14:20:59.517Z,17.06
2023-06-11T14:23:28.416Z,16.66
2023-06-11T14:25:57.136Z,17.04
2023-06-11T14:28:25.869Z,16.17
2023-06-11T14:30:56.098Z,16.30
2023-06-11T14:33:26.739Z,15.75
2023-06-11T14:35:55.715Z,15.13
2023-06-11T14:38:24.384Z,15.18
2023-06-11T14:40:53.231Z,17.48
2023-06-11T14:43:24.218Z,16.58
2023-06-11T14:45:53.281Z,14.72
2023-06-11T14:48:23.147Z,15.17
2023-06-11T14:50:53.533Z,14.13
2023-06-11T14:53:22.921Z,14.39
2023-06-11T14:55:56.351Z,14.61
2023-06-11T14:58:25.350Z,15.31
2023-06-11T15:00:54.142Z,15.37
2023-06-11T15:03:22.917Z,17.09
2023-06-11T15:05:53.313Z,17.50
2023-06-11T15:08:22.002Z,16.87
2023-06-11T15:10:50.798Z,19.28
2023-06-11T15:13:19.449Z,20.02
2023-06-11T15:15:48.458Z,18.95
2023-06-11T15:18:17.180Z,19.06
2023-06-11T15:20:46.215Z,19.50
2023-06-11T15:23:16.385Z,20.04
2023-06-11T15:25:45.368Z,20.64
2023-06-11T15:28:14.186Z,21.67
2023-06-11T15:30:42.971Z,21.87
2023-06-11T15:33:11.871Z,22.05
2023-06-11T15:35:42.001Z,22.74
2023-06-11T15:38:11.257Z,23.17
2023-06-11T15:40:41.435Z,24.12
2023-06-11T15:43:12.108Z,24.25
2023-06-11T15:45:40.853Z,24.70
2023-06-11T15:48:09.613Z,24.33
2023-06-11T15:50:38.567Z,23.85
2023-06-11T15:53:07.237Z,24.70
2023-06-11T15:55:35.963Z,24.86
2023-06-11T15:58:08.891Z,24.74
2023-06-11T16:00:37.832Z,25.08
2023-06-11T16:03:06.821Z,25.72
2023-06-11T16:05:35.687Z,24.95
2023-06-11T16:08:04.580Z,25.55
2023-06-11T16:10:34.092Z,25.21
2023-06-11T16:13:11.897Z,26.18
2023-06-11T16:15:47.811Z,26.00
2023-06-11T16:18:21.274Z,25.09
2023-06-11T16:20:51.183Z,26.21
2023-06-11T16:23:20.389Z,27.17
2023-06-11T16:25:58.186Z,28.17
2023-06-11T16:28:29.643Z,27.91
2023-06-11T16:30:58.512Z,29.47
2023-06-11T16:33:30.874Z,27.48
2023-06-11T16:36:07.644Z,28.70
2023-06-11T16:38:36.475Z,29.09
2023-06-11T16:41:06.375Z,29.72
2023-06-11T16:43:36.730Z,29.71
2023-06-11T16:46:05.904Z,29.31
2023-06-11T16:48:35.794Z,28.60
2023-06-11T16:51:04.674Z,29.13
2023-06-11T16:53:33.474Z,29.22
2023-06-11T16:56:02.567Z,29.20
2023-06-11T16:58:32.745Z,30.24
2023-06-11T17:01:16.431Z,30.13
2023-06-11T17:03:48.046Z,31.23
2023-06-11T17:06:18.016Z,32.82
2023-06-11T17:08:46.970Z,32.39
2023-06-11T17:11:15.696Z,32.11
2023-06-11T17:13:44.383Z,32.37
2023-06-11T17:16:14.898Z,31.96
2023-06-11T17:18:43.880Z,32.13
2023-06-11T17:21:13.675Z,32.76
2023-06-11T17:23:45.172Z,32.40
2023-06-11T17:26:16.435Z,33.21
2023-06-11T17:28:49.608Z,32.98
2023-06-11T17:31:21.099Z,33.45
2023-06-11T17:33:50.229Z,33.03
2023-06-11T17:36:19.883Z,33.66
2023-06-11T17:38:48.720Z,32.58
2023-06-11T17:41:17.961Z,32.44
2023-06-11T17:43:47.460Z,32.67
2023-06-11T17:46:21.042Z,32.40
2023-06-11T17:48:51.249Z,32.66
2023-06-11T17:51:20.416Z,33.54
2023-06-11T17:53:49.882Z,33.05
2023-06-11T17:56:19.986Z,33.21
2023-06-11T17:58:49.081Z,34.21
2023-06-11T18:01:21.651Z,33.85
2023-06-11T18:03:52.215Z,33.84
2023-06-11T18:06:54.238Z,34.64
2023-06-11T18:09:23.026Z,35.53
2023-06-11T18:11:53.187Z,35.70
2023-06-11T18:14:23.657Z,35.31
2023-06-11T18:16:56.179Z,36.39
2023-06-11T18:19:27.132Z,37.94
2023-06-11T18:21:56.069Z,37.80
2023-06-11T18:24:29.404Z,38.14
2023-06-11T18:26:59.376Z,38.31
2023-06-11T18:29:29.317Z,38.17
2023-06-11T18:32:02.157Z,38.91
2023-06-11T18:34:32.453Z,39.23
2023-06-11T18:37:01.365Z,39.10
2023-06-11T18:39:31.412Z,38.74
2023-06-11T18:42:14.976Z,39.99
2023-06-11T18:44:45.655Z,40.05
2023-06-11T18:47:18.400Z,40.25
2023-06-11T18:49:47.492Z,39.72
2023-06-11T18:52:17.933Z,40.20
2023-06-11T18:54:48.388Z,41.03
2023-06-11T18:57:20.912Z,41.18
2023-06-11T18:59:49.654Z,41.94
2023-06-11T19:02:22.371Z,42.75
2023-06-11T19:04:51.187Z,42.61
2023-06-11T19:07:20.375Z,43.14
2023-06-11T19:09:49.134Z,43.68
2023-06-11T19:12:17.841Z,43.87
2023-06-11T19:14:48.567Z,44.57
2023-06-11T19:17:18.650Z,44.58
2023-06-11T19:19:48.847Z,44.48
2023-06-11T19:22:17.654Z,44.99
2023-06-11T19:24:46.477Z,45.72
2023-06-11T19:32:36.419Z,45.90
2023-06-11T19:35:08.342Z,46.43
2023-06-11T19:37:37.116Z,46.46
2023-06-11T19:40:08.149Z,46.82
2023-06-11T19:42:37.102Z,46.89
2023-06-11T19:45:10.201Z,46.61
2023-06-11T19:47:39.384Z,47.35
2023-06-11T19:50:12.383Z,47.33
2023-06-11T19:53:24.748Z,47.83
2023-06-11T19:56:20.162Z,47.05
2023-06-11T19:58:49.247Z,47.61
2023-06-11T20:01:18.561Z,48.12
2023-06-11T20:03:47.391Z,48.15
2023-06-11T20:06:18.188Z,48.46
2023-06-11T20:08:51.757Z,48.43
2023-06-11T20:11:22.227Z,48.98
2023-06-11T20:13:51.110Z,49.58
2023-06-11T20:16:19.881Z,50.22
2023-06-11T20:18:48.745Z,49.14
2023-06-11T20:21:37.278Z,49.98
2023-06-11T20:24:08.736Z,50.15
2023-06-11T20:26:44.179Z,49.88
2023-06-11T20:29:13.770Z,50.37
2023-06-11T20:31:42.782Z,50.62
2023-06-11T20:36:33.730Z,51.04
2023-06-11T20:45:27.551Z,51.36
2023-06-11T20:48:04.580Z,51.76
2023-06-11T20:50:33.502Z,51.54
2023-06-11T20:53:02.631Z,51.78
2023-06-11T20:55:32.802Z,52.33
2023-06-11T20:58:10.914Z,52.60
2023-06-11T21:00:40.056Z,53.81
2023-06-11T21:03:37.454Z,53.30
2023-06-11T21:07:05.571Z,54.09
2023-06-11T21:09:34.388Z,54.37
2023-06-11T21:12:06.703Z,54.00
2023-06-11T21:14:35.446Z,54.81
2023-06-11T21:17:04.420Z,55.34
2023-06-11T21:19:33.395Z,55.42
2023-06-11T21:22:02.293Z,54.74
2023-06-11T21:24:31.099Z,54.64
2023-06-11T21:30:46.332Z,56.38
2023-06-11T21:36:08.832Z,57.30
2023-06-11T21:38:37.700Z,56.27
2023-06-11T21:41:44.744Z,56.61
2023-06-11T21:44:16.959Z,57.58
2023-06-11T21:47:15.711Z,57.03
2023-06-11T21:50:11.059Z,57.61
2023-06-11T21:55:43.884Z,57.94
2023-06-11T22:01:41.469Z,57.68
2023-06-11T22:04:20.832Z,58.50
2023-06-11T22:06:54.101Z,59.43
2023-06-11T22:09:36.201Z,59.77
2023-06-11T22:12:07.600Z,59.85
2023-06-11T22:14:38.092Z,59.46
2023-06-11T22:17:08.791Z,59.31
2023-06-11T22:19:39.879Z,58.97
2023-06-11T22:22:12.199Z,58.97
2023-06-11T22:24:41.788Z,59.32
2023-06-11T22:27:13.402Z,58.90
2023-06-11T22:29:42.346Z,58.56
2023-06-11T22:32:16.531Z,59.45
2023-06-11T22:34:46.726Z,59.96
2023-06-11T22:37:15.497Z,60.34
2023-06-11T22:39:44.279Z,60.73
2023-06-11T22:42:13.379Z,60.60
2023-06-11T22:44:42.468Z,61.03
2023-06-11T22:47:12.117Z,61.36
2023-06-11T22:49:41.474Z,61.36
2023-06-11T22:52:12.688Z,62.12
2023-06-11T22:54:41.461Z,61.60
2023-06-11T22:57:10.192Z,62.28
2023-06-11T22:59:38.918Z,62.30
2023-06-11T23:02:07.774Z,62.31
2023-06-11T23:04:36.653Z,62.26
2023-06-11T23:07:06.121Z,62.45
2023-06-11T23:09:36.300Z,61.87
2023-06-11T23:12:06.228Z,60.70
2023-06-11T23:14:35.225Z,61.73
2023-06-11T23:17:05.111Z,61.94
2023-06-11T23:19:34.528Z,62.43
2023-06-11T23:22:03.336Z,62.38
2023-06-11T23:24:32.607Z,61.71
2023-06-11T23:27:04.410Z,62.64
2023-06-11T23:29:33.864Z,62.24
2023-06-11T23:32:02.972Z,62.48
2023-06-11T23:34:31.881Z,63.10
2023-06-11T23:37:00.992Z,62.77
2023-06-11T23:39:30.493Z,61.67
2023-06-11T23:41:59.272Z,61.46
2023-06-11T23:44:29.716Z,62.30
2023-06-11T23:46:58.425Z,62.86
2023-06-11T23:49:27.131Z,63.50
2023-06-11T23:51:56.303Z,64.18
2023-06-11T23:54:25.275Z,64.28
2023-06-11T23:56:54.573Z,64.03
2023-06-11T23:59:23.381Z,63.74
